Time;durP1;ratioP1;P1;durP2;ratioP2;P2;SDS_P1;SDS_P2;PMS_P1;PMS_P2;Temp;Humidity;BMP_temperature;BMP_pressure;BME280_temperature;BME280_humidity;BME280_pressure;Samples;Min_cycle;Max_cycle;Signal;HPM_P1;HPM_P2
2022/05/27 00:01:43;;;;;;;1.10;1.00;;;19.50;99.90;;;;;;5028467;28;20447;-77
2022/05/27 00:04:11;;;;;;;1.10;1.00;;;19.40;99.90;;;;;;5019118;28;20805;-77
2022/05/27 00:06:39;;;;;;;1.00;0.90;;;19.40;99.90;;;;;;5022018;28;20474;-78
2022/05/27 00:09:09;;;;;;;0.90;0.80;;;19.40;99.90;;;;;;5018420;28;20830;-78
2022/05/27 00:11:37;;;;;;;0.80;0.80;;;19.30;99.90;;;;;;5022666;28;20540;-77
2022/05/27 00:14:05;;;;;;;0.87;0.87;;;19.30;99.90;;;;;;5011489;28;20453;-77
2022/05/27 00:16:34;;;;;;;0.70;0.70;;;19.30;99.90;;;;;;5018125;28;20510;-77
2022/05/27 00:19:02;;;;;;;0.90;0.90;;;19.30;99.90;;;;;;5018430;28;20484;-77
2022/05/27 00:21:30;;;;;;;0.80;0.80;;;19.30;99.90;;;;;;5010950;28;20457;-76
2022/05/27 00:23:59;;;;;;;1.40;0.70;;;19.20;99.90;;;;;;5023476;28;20659;-77
2022/05/27 00:26:29;;;;;;;1.10;0.80;;;19.20;99.90;;;;;;5015818;28;20828;-77
2022/05/27 00:28:58;;;;;;;1.53;0.77;;;19.20;99.90;;;;;;5015351;28;20587;-77
2022/05/27 00:31:30;;;;;;;1.67;0.83;;;19.20;99.90;;;;;;5015123;28;20543;-76
2022/05/27 00:33:58;;;;;;;0.80;0.80;;;19.20;99.90;;;;;;5017238;28;20461;-76
2022/05/27 00:36:26;;;;;;;0.90;0.90;;;19.10;99.90;;;;;;5017406;28;20437;-76
2022/05/27 00:38:55;;;;;;;2.20;1.17;;;19.10;99.90;;;;;;5015942;28;21250;-77
2022/05/27 00:41:23;;;;;;;1.50;0.87;;;19.00;99.90;;;;;;5022919;28;20454;-76
2022/05/27 00:43:52;;;;;;;1.70;1.43;;;19.00;99.90;;;;;;5019589;28;20464;-77
2022/05/27 00:46:24;;;;;;;0.97;0.83;;;19.00;99.90;;;;;;5022089;28;21037;-77
2022/05/27 00:48:55;;;;;;;1.33;0.83;;;18.90;99.90;;;;;;5019122;28;20499;-77
2022/05/27 00:51:26;;;;;;;2.10;0.83;;;18.80;99.90;;;;;;5024505;28;20442;-76
2022/05/27 00:53:58;;;;;;;1.00;1.00;;;18.70;99.90;;;;;;5023548;28;20465;-77
2022/05/27 00:56:31;;;;;;;2.00;1.40;;;18.70;99.90;;;;;;5024455;28;20468;-77
2022/05/27 00:59:04;;;;;;;1.57;1.10;;;18.70;99.90;;;;;;5028418;28;20479;-77
2022/05/27 01:01:32;;;;;;;1.30;1.20;;;18.60;99.90;;;;;;5025898;28;20876;-77
2022/05/27 01:04:03;;;;;;;1.00;0.90;;;18.60;99.90;;;;;;5022207;28;20538;-76
2022/05/27 01:06:31;;;;;;;1.20;1.10;;;18.60;99.90;;;;;;5025361;28;20568;-76
2022/05/27 01:08:59;;;;;;;1.67;0.90;;;18.50;99.90;;;;;;5024900;28;20475;-77
2022/05/27 01:11:41;;;;;;;1.43;1.10;;;18.50;99.90;;;;;;5028876;28;21004;-77
2022/05/27 01:14:20;;;;;;;1.87;1.00;;;18.60;99.90;;;;;;5025444;28;20458;-77
2022/05/27 01:16:58;;;;;;;2.60;1.10;;;18.50;99.90;;;;;;5022937;28;20444;-77
2022/05/27 01:20:20;;;;;;;1.33;1.00;;;18.50;99.90;;;;;;5029177;28;20482;-77
2022/05/27 01:23:24;;;;;;;0.90;0.90;;;18.40;99.90;;;;;;5022456;28;20980;-76
2022/05/27 01:26:25;;;;;;;1.10;1.00;;;18.40;99.90;;;;;;4980905;28;20487;-76
2022/05/27 01:28:58;;;;;;;1.30;1.20;;;18.30;99.90;;;;;;5019865;28;20483;-76
2022/05/27 01:31:36;;;;;;;2.50;1.33;;;18.40;99.90;;;;;;5023119;28;20510;-76
2022/05/27 01:34:11;;;;;;;1.17;1.00;;;18.30;99.90;;;;;;5024342;28;20455;-75
2022/05/27 01:36:47;;;;;;;2.00;1.03;;;18.30;99.90;;;;;;5025184;28;20453;-77
2022/05/27 01:39:25;;;;;;;1.07;0.97;;;18.30;99.90;;;;;;5021625;28;20908;-77
2022/05/27 01:42:02;;;;;;;1.65;1.10;;;18.30;99.90;;;;;;5024900;28;20507;-76
2022/05/27 01:44:34;;;;;;;0.80;0.80;;;18.30;99.90;;;;;;5026361;28;20373;-76
2022/05/27 01:47:08;;;;;;;1.03;1.00;;;18.30;99.90;;;;;;5030031;28;21235;-76
2022/05/27 01:49:42;;;;;;;2.40;1.27;;;18.30;99.90;;;;;;5022955;28;21041;-76
2022/05/27 01:52:16;;;;;;;0.90;0.80;;;18.30;99.90;;;;;;5030236;28;21171;-77
2022/05/27 01:54:51;;;;;;;1.30;1.00;;;18.20;99.90;;;;;;5022605;28;20453;-76
2022/05/27 01:57:26;;;;;;;1.00;0.90;;;18.20;99.90;;;;;;5019776;28;20459;-77
2022/05/27 02:00:05;;;;;;;1.23;0.80;;;18.20;99.90;;;;;;5022556;28;20522;-77
2022/05/27 02:02:38;;;;;;;2.17;1.20;;;18.20;99.90;;;;;;5016578;28;20459;-77
2022/05/27 02:05:11;;;;;;;1.10;0.90;;;18.10;99.90;;;;;;5016105;28;20452;-76
2022/05/27 02:07:44;;;;;;;1.30;1.20;;;18.10;99.90;;;;;;5022817;28;20513;-77
2022/05/27 02:10:18;;;;;;;2.00;0.90;;;18.00;99.90;;;;;;5016231;28;20472;-76
2022/05/27 02:12:51;;;;;;;1.17;1.07;;;18.00;99.90;;;;;;5026718;28;20470;-77
2022/05/27 02:15:26;;;;;;;3.63;1.07;;;18.00;99.90;;;;;;5021978;28;20664;-77
2022/05/27 02:18:00;;;;;;;1.00;0.90;;;18.00;99.90;;;;;;5023401;28;20491;-77
2022/05/27 02:20:33;;;;;;;1.27;1.20;;;17.90;99.90;;;;;;5022345;28;20459;-77
2022/05/27 02:23:06;;;;;;;1.13;1.03;;;18.00;99.90;;;;;;5013905;28;20810;-77
2022/05/27 02:25:37;;;;;;;1.20;1.10;;;18.00;99.90;;;;;;5015805;28;20486;-77
2022/05/27 02:28:11;;;;;;;1.27;0.87;;;18.00;99.90;;;;;;5020706;28;20483;-77
2022/05/27 02:30:43;;;;;;;1.20;1.00;;;17.90;99.90;;;;;;5016818;28;20463;-77
2022/05/27 02:36:06;;;;;;;1.37;0.87;;;17.80;99.90;;;;;;5016453;28;21406;-78
2022/05/27 02:38:34;;;;;;;0.80;0.80;;;17.90;99.90;;;;;;5017365;28;20495;-78
2022/05/27 02:41:09;;;;;;;2.33;1.10;;;17.90;99.90;;;;;;5020518;28;20472;-77
2022/05/27 02:43:51;;;;;;;1.17;0.90;;;17.90;99.90;;;;;;5017268;28;20463;-76
2022/05/27 02:46:27;;;;;;;1.20;0.90;;;17.90;99.90;;;;;;5021392;28;21171;-77
2022/05/27 02:49:06;;;;;;;0.93;0.90;;;17.90;99.90;;;;;;5020238;28;20485;-76
2022/05/27 02:51:41;;;;;;;1.00;0.90;;;17.90;99.90;;;;;;5015865;28;20460;-76
2022/05/27 02:54:17;;;;;;;0.80;0.80;;;17.80;99.90;;;;;;5017771;28;20443;-76
2022/05/27 02:56:50;;;;;;;1.00;0.90;;;17.80;99.90;;;;;;5016216;28;20941;-76
2022/05/27 02:59:20;;;;;;;2.10;0.90;;;17.80;99.90;;;;;;5017837;28;20463;-77
2022/05/27 03:01:48;;;;;;;1.80;0.90;;;17.70;99.90;;;;;;5022900;28;20519;-76
2022/05/27 03:04:20;;;;;;;0.80;0.80;;;17.70;99.90;;;;;;5020176;28;20519;-76
2022/05/27 03:07:09;;;;;;;3.93;0.93;;;17.60;99.90;;;;;;5023242;28;20543;-77
2022/05/27 03:09:49;;;;;;;0.97;0.73;;;17.70;99.90;;;;;;5022151;28;20516;-77
2022/05/27 03:12:36;;;;;;;1.87;1.20;;;17.70;99.90;;;;;;5018779;28;20474;-77
2022/05/27 03:15:21;;;;;;;2.47;0.97;;;17.60;99.90;;;;;;5020912;28;20523;-75
2022/05/27 03:18:04;;;;;;;2.00;1.83;;;17.70;99.90;;;;;;5020130;28;20449;-77
2022/05/27 03:20:47;;;;;;;1.33;1.20;;;17.80;99.90;;;;;;5020850;28;20463;-78
2022/05/27 03:23:26;;;;;;;0.93;0.83;;;17.70;99.90;;;;;;5018335;28;20522;-77
2022/05/27 03:26:02;;;;;;;0.87;0.87;;;17.70;99.90;;;;;;5013749;28;20969;-76
2022/05/27 03:28:39;;;;;;;1.50;0.90;;;17.60;99.90;;;;;;5022128;28;20492;-77
2022/05/27 03:31:13;;;;;;;1.70;0.80;;;17.60;99.90;;;;;;5020974;28;20460;-76
2022/05/27 03:33:52;;;;;;;0.90;0.80;;;17.70;99.90;;;;;;5019833;28;20454;-77
2022/05/27 03:36:25;;;;;;;0.90;0.80;;;17.60;99.90;;;;;;5020351;28;20470;-77
2022/05/27 03:39:11;;;;;;;1.37;0.80;;;17.70;99.90;;;;;;5024745;28;21008;-77
2022/05/27 03:41:45;;;;;;;0.90;0.90;;;17.60;99.90;;;;;;5015903;28;20475;-77
2022/05/27 03:44:16;;;;;;;2.87;1.17;;;17.60;99.90;;;;;;5012787;28;20451;-76
2022/05/27 03:46:45;;;;;;;0.90;0.90;;;17.60;99.90;;;;;;5017534;28;20477;-76
2022/05/27 03:49:13;;;;;;;2.23;1.00;;;17.60;99.90;;;;;;5018081;28;20523;-77
2022/05/27 03:51:51;;;;;;;1.07;0.90;;;17.60;99.90;;;;;;5029160;28;20471;-77
2022/05/27 03:54:21;;;;;;;1.50;1.40;;;17.60;99.90;;;;;;5019558;28;20448;-77
2022/05/27 03:56:49;;;;;;;1.43;1.00;;;17.60;99.90;;;;;;5020483;28;20471;-77
2022/05/27 03:59:19;;;;;;;1.27;1.10;;;17.60;99.90;;;;;;5019094;28;20513;-77
2022/05/27 04:01:49;;;;;;;0.80;0.80;;;17.60;99.90;;;;;;5011181;28;20450;-77
2022/05/27 04:04:20;;;;;;;1.13;0.97;;;17.60;99.90;;;;;;5017195;28;20820;-77
2022/05/27 04:06:50;;;;;;;1.23;1.13;;;17.50;99.90;;;;;;5019353;28;20520;-76
2022/05/27 04:09:20;;;;;;;1.40;1.20;;;17.40;99.90;;;;;;5019309;28;20491;-76
2022/05/27 04:11:49;;;;;;;1.20;1.00;;;17.40;99.90;;;;;;5021727;28;20460;-75
2022/05/27 04:14:17;;;;;;;1.13;1.00;;;17.40;99.90;;;;;;5018613;28;20567;-76
2022/05/27 04:16:48;;;;;;;1.00;0.90;;;17.40;99.90;;;;;;5017423;28;20452;-75
2022/05/27 04:19:17;;;;;;;1.13;1.03;;;17.40;99.90;;;;;;5014852;28;20474;-75
2022/05/27 04:21:46;;;;;;;0.80;0.80;;;17.40;99.90;;;;;;5014476;28;20540;-77
2022/05/27 04:24:15;;;;;;;0.90;0.90;;;17.50;99.90;;;;;;5023610;28;20462;-77
2022/05/27 04:26:43;;;;;;;0.80;0.80;;;17.40;99.90;;;;;;5016786;28;20470;-77
2022/05/27 04:29:11;;;;;;;1.57;1.10;;;17.40;99.90;;;;;;5021169;28;20504;-77
2022/05/27 04:31:40;;;;;;;2.27;1.00;;;17.20;99.90;;;;;;5016560;28;20467;-77
2022/05/27 04:34:10;;;;;;;0.80;0.80;;;17.10;99.90;;;;;;5017667;28;20570;-76
2022/05/27 04:36:38;;;;;;;1.20;0.90;;;17.10;99.90;;;;;;5022505;28;20462;-77
2022/05/27 04:39:06;;;;;;;1.60;0.90;;;17.20;99.90;;;;;;5019072;28;20468;-77
2022/05/27 04:41:37;;;;;;;0.97;0.90;;;17.20;99.90;;;;;;5019246;28;20466;-76
2022/05/27 04:44:05;;;;;;;2.10;1.00;;;17.20;99.90;;;;;;5021297;28;20463;-75
2022/05/27 04:46:34;;;;;;;0.90;0.90;;;17.10;99.90;;;;;;5018960;28;20506;-75
2022/05/27 04:49:02;;;;;;;1.77;0.90;;;16.70;99.90;;;;;;5019132;28;20618;-75
2022/05/27 04:51:30;;;;;;;4.70;1.00;;;16.60;99.90;;;;;;5022008;28;20571;-77
2022/05/27 04:53:58;;;;;;;1.27;1.17;;;16.80;99.90;;;;;;5019324;28;21016;-78
2022/05/27 04:56:27;;;;;;;0.93;0.93;;;17.00;99.90;;;;;;5020809;28;20461;-76
2022/05/27 04:58:56;;;;;;;0.90;0.90;;;17.20;99.90;;;;;;5016707;28;20482;-76
2022/05/27 05:01:24;;;;;;;0.90;0.90;;;17.30;99.90;;;;;;5017964;28;21027;-76
2022/05/27 05:03:53;;;;;;;2.63;1.30;;;17.50;99.90;;;;;;5019438;28;20987;-76
2022/05/27 05:06:21;;;;;;;1.10;1.00;;;17.60;99.90;;;;;;5017822;28;20445;-76
2022/05/27 05:08:49;;;;;;;1.33;1.20;;;17.60;99.90;;;;;;5027765;28;20483;-76
2022/05/27 05:11:17;;;;;;;1.13;0.83;;;17.40;99.90;;;;;;5018019;28;20465;-77
2022/05/27 05:13:46;;;;;;;1.37;1.37;;;17.60;99.90;;;;;;5021944;28;21009;-76
2022/05/27 05:16:15;;;;;;;1.17;1.07;;;17.60;99.90;;;;;;5017863;28;20461;-75
2022/05/27 05:18:43;;;;;;;1.57;1.00;;;17.80;99.90;;;;;;5019668;28;20537;-76
2022/05/27 05:21:12;;;;;;;1.20;0.90;;;17.70;99.90;;;;;;5019427;28;20867;-76
2022/05/27 05:23:40;;;;;;;1.07;1.03;;;17.70;99.90;;;;;;5013108;28;20514;-75
2022/05/27 05:26:09;;;;;;;1.20;1.10;;;17.80;99.90;;;;;;5025608;28;20809;-76
2022/05/27 05:28:37;;;;;;;1.40;1.30;;;17.90;99.90;;;;;;5011491;28;20547;-76
2022/05/27 05:31:06;;;;;;;1.37;1.10;;;18.00;99.90;;;;;;5026290;28;20486;-75
2022/05/27 05:33:36;;;;;;;1.97;1.60;;;18.10;99.90;;;;;;5032722;28;20467;-76
2022/05/27 05:36:05;;;;;;;2.50;1.20;;;18.10;99.90;;;;;;5033981;28;20506;-76
2022/05/27 05:38:33;;;;;;;1.83;1.73;;;18.10;99.90;;;;;;5029461;28;20909;-76
2022/05/27 05:41:01;;;;;;;1.20;1.00;;;18.20;99.90;;;;;;5030067;28;20445;-75
2022/05/27 05:43:29;;;;;;;3.07;1.00;;;18.20;99.90;;;;;;5016928;28;20483;-77
2022/05/27 05:45:59;;;;;;;3.27;1.20;;;18.20;99.90;;;;;;5019789;28;21110;-76
2022/05/27 05:48:28;;;;;;;1.85;1.20;;;18.10;99.90;;;;;;5027053;28;20466;-76
2022/05/27 05:50:58;;;;;;;1.70;1.17;;;18.00;99.90;;;;;;5023563;28;20209;-76
2022/05/27 05:53:26;;;;;;;1.47;1.30;;;18.00;99.90;;;;;;5019665;28;20475;-76
2022/05/27 05:55:54;;;;;;;3.33;1.27;;;18.00;99.90;;;;;;5019079;28;20471;-76
2022/05/27 05:58:22;;;;;;;2.10;1.10;;;18.00;99.90;;;;;;5018501;28;21003;-76
2022/05/27 06:00:51;;;;;;;1.20;1.10;;;18.10;99.90;;;;;;5022403;28;20455;-76
2022/05/27 06:03:19;;;;;;;2.70;1.10;;;18.00;99.90;;;;;;5016645;28;20529;-77
2022/05/27 06:05:47;;;;;;;1.83;1.10;;;18.10;99.90;;;;;;5021680;28;20453;-75
2022/05/27 06:08:18;;;;;;;1.63;1.10;;;18.20;99.90;;;;;;5019147;28;20484;-76
2022/05/27 06:10:46;;;;;;;1.93;1.10;;;18.20;99.90;;;;;;5013142;28;20539;-76
2022/05/27 06:13:16;;;;;;;2.30;1.20;;;18.20;99.90;;;;;;5021799;28;20983;-76
2022/05/27 06:15:44;;;;;;;1.40;1.20;;;18.10;99.90;;;;;;5021088;28;20459;-75
2022/05/27 06:18:13;;;;;;;1.37;1.03;;;18.10;99.90;;;;;;5025152;28;20452;-76
2022/05/27 06:20:41;;;;;;;2.50;1.40;;;18.20;99.90;;;;;;5021998;28;20453;-75
2022/05/27 06:23:10;;;;;;;1.03;0.93;;;18.20;99.90;;;;;;5018801;28;20811;-75
2022/05/27 06:25:40;;;;;;;1.20;1.10;;;18.30;99.90;;;;;;5027028;28;20852;-76
2022/05/27 06:36:36;;;;;;;2.00;1.20;;;18.30;99.90;;;;;;5019932;28;20477;-76
2022/05/27 06:39:04;;;;;;;2.30;1.10;;;18.40;99.90;;;;;;5022286;28;20468;-75
2022/05/27 06:41:34;;;;;;;2.40;1.40;;;18.40;99.90;;;;;;5022895;28;21332;-76
2022/05/27 06:44:03;;;;;;;4.50;1.70;;;18.50;99.90;;;;;;5018655;28;20459;-74
2022/05/27 06:46:32;;;;;;;2.83;1.27;;;18.60;99.90;;;;;;5021670;28;20460;-76
2022/05/27 06:49:00;;;;;;;2.30;1.33;;;18.60;99.90;;;;;;5021594;28;20477;-76
2022/05/27 06:51:29;;;;;;;0.97;0.97;;;18.60;99.90;;;;;;5019350;28;20467;-76
2022/05/27 06:53:57;;;;;;;1.33;1.07;;;18.60;99.90;;;;;;5020213;28;20464;-75
2022/05/27 06:56:26;;;;;;;1.37;1.27;;;18.60;99.90;;;;;;5018351;28;20470;-76
2022/05/27 06:58:55;;;;;;;1.53;1.20;;;18.60;99.90;;;;;;5024097;28;20473;-76
2022/05/27 07:01:23;;;;;;;1.30;1.20;;;18.70;99.90;;;;;;5023358;28;20453;-78
2022/05/27 07:03:52;;;;;;;1.60;1.07;;;18.70;99.90;;;;;;5025589;28;20467;-79
2022/05/27 07:06:21;;;;;;;1.73;1.20;;;18.70;99.90;;;;;;5023184;28;20456;-78
2022/05/27 07:08:49;;;;;;;1.53;1.30;;;18.80;99.90;;;;;;5023577;28;20556;-81
2022/05/27 07:11:17;;;;;;;1.63;1.40;;;18.80;99.90;;;;;;5026420;28;20465;-76
2022/05/27 07:13:45;;;;;;;1.57;1.00;;;18.80;99.90;;;;;;5016225;28;20467;-77
2022/05/27 07:16:15;;;;;;;1.40;1.30;;;18.90;99.90;;;;;;5017742;28;20487;-76
2022/05/27 07:18:43;;;;;;;1.70;1.60;;;18.80;99.90;;;;;;5021082;28;20452;-77
2022/05/27 07:21:12;;;;;;;1.20;1.03;;;18.90;99.90;;;;;;5021247;28;20201;-77
2022/05/27 07:23:40;;;;;;;2.83;1.10;;;18.90;99.90;;;;;;5021014;28;22281;-77
2022/05/27 07:26:08;;;;;;;2.43;2.20;;;18.90;99.90;;;;;;5009973;28;20458;-76
2022/05/27 07:28:36;;;;;;;1.30;1.17;;;19.00;99.90;;;;;;5010407;28;20847;-77
2022/05/27 07:31:05;;;;;;;1.97;1.20;;;18.90;99.90;;;;;;5028877;28;20484;-78
2022/05/27 07:33:40;;;;;;;1.77;1.60;;;18.90;99.90;;;;;;5014838;28;20848;-77
2022/05/27 07:36:08;;;;;;;1.80;1.40;;;19.00;99.90;;;;;;5017257;28;20222;-77
2022/05/27 07:38:37;;;;;;;1.20;1.10;;;19.00;99.90;;;;;;5026336;28;20395;-76
2022/05/27 07:41:06;;;;;;;1.73;1.63;;;19.00;99.90;;;;;;5020774;28;20273;-76
2022/05/27 07:43:34;;;;;;;2.53;1.27;;;19.00;99.90;;;;;;5019081;28;20504;-75
2022/05/27 07:46:03;;;;;;;1.50;1.10;;;19.00;99.90;;;;;;5020543;28;20452;-73
2022/05/27 07:48:32;;;;;;;1.33;1.23;;;18.90;99.90;;;;;;5025851;28;20538;-76
2022/05/27 07:51:02;;;;;;;2.97;1.20;;;19.00;99.90;;;;;;5026145;28;20575;-76
2022/05/27 07:53:30;;;;;;;1.30;1.20;;;19.10;99.90;;;;;;5017703;28;20457;-73
2022/05/27 07:55:58;;;;;;;1.33;1.20;;;19.20;99.90;;;;;;5015573;28;20452;-75
2022/05/27 07:58:26;;;;;;;1.10;1.00;;;19.20;99.90;;;;;;5019232;28;20498;-75
2022/05/27 08:00:55;;;;;;;2.70;1.10;;;19.20;99.90;;;;;;5021785;28;20446;-76
2022/05/27 08:03:23;;;;;;;1.90;1.80;;;19.20;99.90;;;;;;5023228;28;20818;-76
2022/05/27 08:05:51;;;;;;;1.20;1.10;;;19.20;99.90;;;;;;5034609;28;20989;-75
2022/05/27 08:08:21;;;;;;;3.30;1.40;;;19.20;99.90;;;;;;5028089;28;20444;-76
2022/05/27 08:10:50;;;;;;;2.57;1.10;;;19.20;99.90;;;;;;5027798;28;20491;-76
2022/05/27 08:13:18;;;;;;;1.17;1.07;;;19.10;99.90;;;;;;5013857;28;20456;-76
2022/05/27 08:15:46;;;;;;;3.00;1.10;;;19.00;99.90;;;;;;5023019;28;20490;-76
2022/05/27 08:18:15;;;;;;;1.20;1.10;;;19.10;99.90;;;;;;5023406;28;20470;-75
2022/05/27 08:20:44;;;;;;;3.17;1.00;;;19.10;99.90;;;;;;5024313;28;20530;-76
2022/05/27 08:23:12;;;;;;;1.13;1.00;;;19.10;99.90;;;;;;5023123;28;20995;-75
2022/05/27 08:25:42;;;;;;;1.33;1.23;;;19.10;99.90;;;;;;5023524;28;20488;-75
2022/05/27 08:28:10;;;;;;;1.33;1.23;;;19.10;99.90;;;;;;5026148;28;20452;-75
2022/05/27 08:30:40;;;;;;;1.23;1.10;;;19.10;99.90;;;;;;5022446;28;20481;-75
2022/05/27 08:33:09;;;;;;;2.07;1.33;;;19.20;99.90;;;;;;5025521;28;20460;-76
2022/05/27 08:38:29;;;;;;;1.80;1.13;;;19.40;99.90;;;;;;5016882;28;20475;-76
2022/05/27 08:41:11;;;;;;;0.83;0.83;;;19.40;99.90;;;;;;5030396;28;20447;-76
2022/05/27 08:43:52;;;;;;;2.13;1.00;;;19.30;99.90;;;;;;5017831;28;20532;-76
2022/05/27 08:46:42;;;;;;;1.10;1.00;;;19.40;99.90;;;;;;5024809;28;20504;-76
2022/05/27 08:49:16;;;;;;;2.03;1.30;;;19.40;99.90;;;;;;5017026;28;20476;-76
2022/05/27 08:51:49;;;;;;;2.53;1.00;;;19.30;99.90;;;;;;5010609;28;20845;-76
2022/05/27 08:54:22;;;;;;;1.10;1.00;;;19.30;99.90;;;;;;5012641;28;20472;-75
2022/05/27 08:59:41;;;;;;;1.30;1.20;;;19.30;99.90;;;;;;5019261;28;20472;-75
2022/05/27 09:02:16;;;;;;;1.93;1.23;;;19.30;99.90;;;;;;5008968;28;20803;-74
2022/05/27 09:04:57;;;;;;;2.73;1.30;;;19.30;99.90;;;;;;5008105;28;20460;-74
2022/05/27 09:07:35;;;;;;;1.30;1.20;;;19.30;99.90;;;;;;5019216;28;20469;-74
2022/05/27 09:10:08;;;;;;;0.93;0.93;;;19.30;99.90;;;;;;5025984;28;20534;-73
2022/05/27 09:12:46;;;;;;;1.20;1.10;;;19.30;99.90;;;;;;5018011;28;20461;-74
2022/05/27 09:15:21;;;;;;;0.97;0.97;;;19.30;99.90;;;;;;5027039;28;20467;-74
2022/05/27 09:18:00;;;;;;;1.37;1.23;;;19.40;99.90;;;;;;5022819;28;20574;-75
2022/05/27 09:20:39;;;;;;;2.03;1.40;;;19.40;99.90;;;;;;5023977;28;20444;-74
2022/05/27 09:23:17;;;;;;;1.70;1.00;;;19.50;99.90;;;;;;5015367;28;20464;-74
2022/05/27 09:26:01;;;;;;;1.10;1.00;;;19.60;99.90;;;;;;5022891;28;20452;-74
2022/05/27 09:28:41;;;;;;;1.60;0.70;;;19.60;99.90;;;;;;5017639;28;20484;-75
2022/05/27 09:31:12;;;;;;;1.10;1.00;;;19.70;99.90;;;;;;5031367;28;20484;-74
2022/05/27 09:33:42;;;;;;;1.30;1.20;;;19.80;99.90;;;;;;5028614;28;20460;-75
2022/05/27 09:36:13;;;;;;;1.20;1.10;;;19.90;99.90;;;;;;5029380;28;20589;-75
2022/05/27 09:38:49;;;;;;;1.10;1.00;;;19.90;99.90;;;;;;5035410;28;20531;-75
2022/05/27 09:41:24;;;;;;;1.33;1.00;;;19.90;99.90;;;;;;5014020;28;20955;-76
2022/05/27 09:43:58;;;;;;;1.80;1.20;;;19.80;99.90;;;;;;5021618;28;20509;-75
2022/05/27 09:46:28;;;;;;;1.27;1.03;;;19.90;99.90;;;;;;5024879;28;20933;-75
2022/05/27 09:48:57;;;;;;;1.70;0.90;;;19.90;99.90;;;;;;5028994;28;20484;-75
2022/05/27 09:51:27;;;;;;;1.30;0.93;;;19.80;99.90;;;;;;5029631;28;20514;-75
2022/05/27 09:54:01;;;;;;;1.63;1.20;;;19.90;99.90;;;;;;5028874;28;20470;-74
2022/05/27 09:56:37;;;;;;;1.10;0.90;;;20.00;99.90;;;;;;5019605;28;20975;-75
2022/05/27 09:59:25;;;;;;;1.30;0.90;;;20.00;99.90;;;;;;5024476;28;20470;-75
2022/05/27 10:02:13;;;;;;;1.77;0.80;;;19.90;99.90;;;;;;5020305;28;20452;-75
2022/05/27 10:04:53;;;;;;;0.90;0.90;;;19.90;99.90;;;;;;5015859;28;20468;-74
2022/05/27 10:07:32;;;;;;;1.10;1.00;;;19.80;99.90;;;;;;5023891;28;20453;-74
2022/05/27 10:10:19;;;;;;;0.90;0.90;;;19.70;99.90;;;;;;5030253;28;20487;-74
2022/05/27 10:12:48;;;;;;;3.80;1.10;;;19.90;99.90;;;;;;5031513;28;20457;-73
2022/05/27 10:15:39;;;;;;;1.13;1.00;;;19.90;99.90;;;;;;5020293;28;20452;-75
2022/05/27 10:18:19;;;;;;;1.07;0.97;;;19.80;99.90;;;;;;5012950;28;20491;-76
2022/05/27 10:20:52;;;;;;;1.40;1.03;;;19.90;99.90;;;;;;5016507;28;20461;-76
2022/05/27 10:23:28;;;;;;;1.10;1.00;;;20.00;99.90;;;;;;5017988;28;20487;-77
2022/05/27 10:26:00;;;;;;;1.20;0.90;;;19.90;99.90;;;;;;5019552;28;20448;-78
2022/05/27 10:28:30;;;;;;;0.90;0.90;;;20.00;99.90;;;;;;5025718;28;20875;-78
2022/05/27 10:31:02;;;;;;;1.83;1.43;;;20.10;99.90;;;;;;5019648;28;20483;-79
2022/05/27 10:33:39;;;;;;;0.97;0.93;;;20.30;99.90;;;;;;5015366;28;20452;-77
2022/05/27 10:36:39;;;;;;;1.90;0.80;;;20.40;99.90;;;;;;5021759;28;20505;-76
2022/05/27 10:39:13;;;;;;;1.17;1.07;;;20.50;99.90;;;;;;5019108;28;20472;-77
2022/05/27 10:41:54;;;;;;;1.10;1.00;;;20.60;99.90;;;;;;5018712;28;20475;-76
2022/05/27 10:44:33;;;;;;;1.20;1.10;;;20.60;99.90;;;;;;5020847;28;21126;-76
2022/05/27 10:47:07;;;;;;;2.17;0.90;;;20.40;99.90;;;;;;5024516;28;20466;-80
2022/05/27 10:49:51;;;;;;;2.03;1.20;;;20.50;99.90;;;;;;5018911;28;20481;-79
2022/05/27 10:52:30;;;;;;;1.43;1.00;;;20.50;99.90;;;;;;5021502;28;20498;-79
2022/05/27 10:55:12;;;;;;;1.20;1.10;;;20.60;99.90;;;;;;5020276;28;20542;-79
2022/05/27 11:04:01;;;;;;;0.83;0.83;;;20.50;99.90;;;;;;5020827;28;20467;-78
2022/05/27 11:06:44;;;;;;;0.87;0.87;;;20.60;99.90;;;;;;5014753;28;20881;-79
2022/05/27 11:09:32;;;;;;;1.03;0.90;;;20.70;99.90;;;;;;5019435;28;20479;-78
2022/05/27 11:12:11;;;;;;;1.53;0.70;;;20.80;99.90;;;;;;5019587;28;20487;-79
2022/05/27 11:15:11;;;;;;;0.90;0.90;;;20.80;99.90;;;;;;5013497;28;20779;-78
2022/05/27 11:17:51;;;;;;;1.93;1.30;;;20.90;99.90;;;;;;5017640;28;20447;-79
2022/05/27 11:20:47;;;;;;;0.80;0.80;;;20.90;99.90;;;;;;5013292;28;20464;-78
2022/05/27 11:23:39;;;;;;;0.93;0.90;;;20.90;99.90;;;;;;5018439;28;20441;-78
2022/05/27 11:26:16;;;;;;;0.83;0.83;;;20.90;99.90;;;;;;5019696;28;20465;-79
2022/05/27 11:29:01;;;;;;;1.57;0.90;;;20.60;99.90;;;;;;5018486;28;20495;-78
2022/05/27 11:31:42;;;;;;;0.70;0.70;;;20.60;99.90;;;;;;5012057;28;21041;-78
2022/05/27 11:34:23;;;;;;;1.43;0.73;;;20.70;99.90;;;;;;5015131;28;20480;-76
2022/05/27 11:37:18;;;;;;;1.33;0.87;;;20.60;99.90;;;;;;5022020;28;20448;-77
2022/05/27 11:40:17;;;;;;;0.90;0.90;;;20.50;99.90;;;;;;5025149;28;20481;-77
2022/05/27 11:43:07;;;;;;;1.20;0.80;;;20.40;99.90;;;;;;5008422;28;20473;-77
2022/05/27 11:45:36;;;;;;;1.90;0.80;;;20.50;99.90;;;;;;5018545;28;20444;-77
2022/05/27 11:48:08;;;;;;;1.90;0.90;;;20.50;99.90;;;;;;5017140;28;20197;-76
2022/05/27 11:51:07;;;;;;;0.90;0.80;;;20.30;99.90;;;;;;5012622;28;20460;-77
2022/05/27 11:54:09;;;;;;;0.67;0.67;;;20.30;99.90;;;;;;5013104;28;20836;-77
2022/05/27 11:56:53;;;;;;;0.87;0.87;;;20.10;99.90;;;;;;5013493;28;20463;-77
2022/05/27 11:59:26;;;;;;;1.43;0.90;;;20.10;99.90;;;;;;5021195;28;20486;-77
2022/05/27 12:02:01;;;;;;;0.83;0.83;;;20.20;99.90;;;;;;5024904;28;20452;-77
2022/05/27 12:04:39;;;;;;;1.33;0.93;;;20.30;99.90;;;;;;5028326;28;20463;-77
2022/05/27 12:07:17;;;;;;;0.73;0.73;;;20.40;99.90;;;;;;5026823;28;20460;-76
2022/05/27 12:09:52;;;;;;;0.80;0.80;;;20.40;99.90;;;;;;5028677;28;20525;-77
2022/05/27 12:12:25;;;;;;;1.43;1.10;;;20.40;99.90;;;;;;5019708;28;20487;-77
2022/05/27 12:14:58;;;;;;;1.83;0.90;;;20.30;99.90;;;;;;5018540;28;20458;-77
2022/05/27 12:17:37;;;;;;;1.70;0.80;;;20.20;99.90;;;;;;5013104;28;21023;-77
2022/05/27 12:20:06;;;;;;;1.47;0.90;;;20.40;99.90;;;;;;5017079;28;20473;-77
2022/05/27 12:22:35;;;;;;;1.57;0.80;;;20.60;99.90;;;;;;5026466;28;20507;-77
2022/05/27 12:25:07;;;;;;;1.07;0.70;;;20.70;99.90;;;;;;5027778;28;20457;-77
2022/05/27 12:27:37;;;;;;;1.00;0.90;;;20.70;99.90;;;;;;5026951;28;20487;-77
2022/05/27 12:30:09;;;;;;;1.00;0.90;;;20.90;99.90;;;;;;5027662;28;20494;-77
2022/05/27 12:32:41;;;;;;;1.10;0.73;;;21.00;99.90;;;;;;5014819;28;20487;-77
2022/05/27 12:35:23;;;;;;;0.80;0.80;;;21.00;99.90;;;;;;5018352;28;20457;-78
2022/05/27 12:37:58;;;;;;;1.73;0.97;;;21.10;99.90;;;;;;5024979;28;20469;-77
2022/05/27 12:40:33;;;;;;;0.97;0.83;;;21.10;99.90;;;;;;5027499;28;20487;-77
2022/05/27 12:43:12;;;;;;;0.80;0.80;;;21.20;99.90;;;;;;5028095;28;20462;-77
2022/05/27 12:45:49;;;;;;;0.90;0.80;;;21.20;99.90;;;;;;5027216;28;20516;-76
2022/05/27 12:48:28;;;;;;;0.80;0.80;;;21.20;99.90;;;;;;5026949;28;20467;-77
2022/05/27 12:50:58;;;;;;;0.70;0.70;;;21.30;99.90;;;;;;5010992;28;20712;-77
2022/05/27 12:53:42;;;;;;;1.50;1.00;;;21.30;99.90;;;;;;5024782;28;21039;-77
2022/05/27 13:02:48;;;;;;;0.90;0.90;;;21.20;99.90;;;;;;5026703;28;20529;-77
2022/05/27 13:05:18;;;;;;;0.93;0.80;;;21.20;99.90;;;;;;5015643;28;21035;-78
2022/05/27 13:07:53;;;;;;;2.80;1.27;;;21.20;99.90;;;;;;5025606;28;20461;-77
2022/05/27 13:10:54;;;;;;;0.90;0.90;;;21.20;99.90;;;;;;5021577;28;20474;-77
2022/05/27 13:13:33;;;;;;;0.70;0.70;;;21.20;99.90;;;;;;5017934;28;20487;-78
2022/05/27 13:16:09;;;;;;;0.90;0.90;;;21.20;99.90;;;;;;5027267;28;20456;-76
2022/05/27 13:18:51;;;;;;;0.90;0.90;;;21.20;99.90;;;;;;5025572;28;21010;-76
2022/05/27 13:21:37;;;;;;;0.70;0.70;;;21.20;99.90;;;;;;5027708;28;20498;-77
2022/05/27 13:24:23;;;;;;;1.07;1.00;;;21.30;99.90;;;;;;5026376;28;20539;-77
2022/05/27 13:26:59;;;;;;;1.57;1.00;;;21.30;99.90;;;;;;5019367;28;20526;-77
2022/05/27 13:29:33;;;;;;;0.80;0.80;;;21.30;99.90;;;;;;5026254;28;20875;-77
2022/05/27 13:32:07;;;;;;;0.90;0.90;;;21.30;99.90;;;;;;5024755;28;20458;-77
2022/05/27 13:34:43;;;;;;;1.20;0.90;;;21.30;99.90;;;;;;5014488;28;20495;-77
2022/05/27 13:37:20;;;;;;;2.60;0.90;;;21.30;99.90;;;;;;5027020;28;20459;-77
2022/05/27 13:39:53;;;;;;;1.33;1.00;;;21.30;99.90;;;;;;5018953;28;20474;-77
2022/05/27 13:42:29;;;;;;;0.73;0.73;;;21.30;99.90;;;;;;5016758;28;20463;-77
2022/05/27 13:45:01;;;;;;;0.93;0.93;;;21.20;99.90;;;;;;5025020;28;20452;-77
2022/05/27 13:47:55;;;;;;;2.20;0.90;;;21.30;99.90;;;;;;5026558;28;21035;-77
2022/05/27 13:50:30;;;;;;;0.70;0.70;;;21.30;99.90;;;;;;5025055;28;20472;-77
2022/05/27 13:52:59;;;;;;;0.80;0.80;;;21.20;99.90;;;;;;5020223;28;20475;-77